sensor_id;sensor_type;location;lat;lon;timestamp;pressure;altitude;pressure_sealevel;temperature;humidity
18323;BME280;9287;49.456;11.064;2024-01-15T00:01:55;96953.97;;;-3.68;100.00
18323;BME280;9287;49.456;11.064;2024-01-15T00:04:26;96956.00;;;-3.60;100.00
18323;BME280;9287;49.456;11.064;2024-01-15T00:06:55;96939.00;;;-3.64;100.00
18323;BME280;9287;49.456;11.064;2024-01-15T00:09:25;96935.81;;;-3.66;100.00
18323;BME280;9287;49.456;11.064;2024-01-15T00:11:54;96925.19;;;-3.71;100.00
18323;BME280;9287;49.456;11.064;2024-01-15T00:14:31;96916.97;;;-3.74;100.00
18323;BME280;9287;49.456;11.064;2024-01-15T00:17:01;96930.03;;;-3.73;100.00
18323;BME280;9287;49.456;11.064;2024-01-15T00:19:34;96944.38;;;-3.69;100.00
18323;BME280;9287;49.456;11.064;2024-01-15T00:22:03;96935.88;;;-3.71;100.00
18323;BME280;9287;49.456;11.064;2024-01-15T00:24:33;96922.75;;;-3.67;100.00
18323;BME280;9287;49.456;11.064;2024-01-15T00:27:01;96913.22;;;-3.73;100.00
18323;BME280;9287;49.456;11.064;2024-01-15T00:29:29;96907.16;;;-3.79;100.00
18323;BME280;9287;49.456;11.064;2024-01-15T00:32:01;96908.75;;;-3.78;100.00
18323;BME280;9287;49.456;11.064;2024-01-15T00:34:32;96903.34;;;-3.73;100.00
18323;BME280;9287;49.456;11.064;2024-01-15T00:37:02;96906.06;;;-3.78;100.00
18323;BME280;9287;49.456;11.064;2024-01-15T00:39:35;96896.00;;;-3.81;100.00
18323;BME280;9287;49.456;11.064;2024-01-15T00:42:05;96888.00;;;-3.81;100.00
18323;BME280;9287;49.456;11.064;2024-01-15T00:44:34;96889.00;;;-3.77;100.00
18323;BME280;9287;49.456;11.064;2024-01-15T00:47:03;96865.66;;;-3.85;100.00
18323;BME280;9287;49.456;11.064;2024-01-15T00:49:33;96869.53;;;-3.77;100.00
18323;BME280;9287;49.456;11.064;2024-01-15T00:52:05;96871.06;;;-3.71;100.00
18323;BME280;9287;49.456;11.064;2024-01-15T00:54:42;96879.28;;;-3.68;100.00
18323;BME280;9287;49.456;11.064;2024-01-15T00:57:11;96878.34;;;-3.58;100.00
18323;BME280;9287;49.456;11.064;2024-01-15T00:59:42;96869.41;;;-3.67;100.00
18323;BME280;9287;49.456;11.064;2024-01-15T01:02:10;96863.06;;;-3.53;100.00
18323;BME280;9287;49.456;11.064;2024-01-15T01:04:38;96867.88;;;-3.55;100.00
18323;BME280;9287;49.456;11.064;2024-01-15T01:07:06;96893.44;;;-3.48;100.00
18323;BME280;9287;49.456;11.064;2024-01-15T01:09:35;96898.09;;;-3.40;100.00
18323;BME280;9287;49.456;11.064;2024-01-15T01:12:06;96906.56;;;-3.33;100.00
18323;BME280;9287;49.456;11.064;2024-01-15T01:14:36;96907.56;;;-3.29;100.00
18323;BME280;9287;49.456;11.064;2024-01-15T01:17:05;96901.63;;;-3.26;100.00
18323;BME280;9287;49.456;11.064;2024-01-15T01:19:33;96890.44;;;-3.28;100.00
18323;BME280;9287;49.456;11.064;2024-01-15T01:22:03;96888.38;;;-3.31;100.00
18323;BME280;9287;49.456;11.064;2024-01-15T01:24:33;96887.28;;;-3.30;100.00
18323;BME280;9287;49.456;11.064;2024-01-15T01:27:04;96889.97;;;-3.30;100.00
18323;BME280;9287;49.456;11.064;2024-01-15T01:29:35;96880.88;;;-3.29;100.00
18323;BME280;9287;49.456;11.064;2024-01-15T01:32:04;96881.97;;;-3.30;100.00
18323;BME280;9287;49.456;11.064;2024-01-15T01:34:40;96887.28;;;-3.30;100.00
18323;BME280;9287;49.456;11.064;2024-01-15T01:37:14;96881.97;;;-3.30;100.00
18323;BME280;9287;49.456;11.064;2024-01-15T01:39:43;96889.81;;;-3.20;100.00
18323;BME280;9287;49.456;11.064;2024-01-15T01:42:16;96888.22;;;-3.21;100.00
18323;BME280;9287;49.456;11.064;2024-01-15T01:44:44;96883.44;;;-3.24;100.00
18323;BME280;9287;49.456;11.064;2024-01-15T01:47:15;96882.31;;;-3.18;100.00
18323;BME280;9287;49.456;11.064;2024-01-15T01:49:48;96867.97;;;-3.08;100.00
18323;BME280;9287;49.456;11.064;2024-01-15T01:52:19;96869.69;;;-3.12;100.00
18323;BME280;9287;49.456;11.064;2024-01-15T01:54:52;96862.47;;;-3.12;100.00
18323;BME280;9287;49.456;11.064;2024-01-15T01:57:24;96863.53;;;-3.13;100.00
18323;BME280;9287;49.456;11.064;2024-01-15T01:59:53;96864.44;;;-3.04;100.00
18323;BME280;9287;49.456;11.064;2024-01-15T02:02:25;96865.97;;;-2.98;100.00
18323;BME280;9287;49.456;11.064;2024-01-15T02:04:57;96855.09;;;-2.88;100.00
18323;BME280;9287;49.456;11.064;2024-01-15T02:07:26;96862.59;;;-2.90;100.00
18323;BME280;9287;49.456;11.064;2024-01-15T02:09:56;96860.88;;;-2.81;100.00
18323;BME280;9287;49.456;11.064;2024-01-15T02:12:29;96866.78;;;-2.84;100.00
18323;BME280;9287;49.456;11.064;2024-01-15T02:14:57;96865.38;;;-2.95;100.00
18323;BME280;9287;49.456;11.064;2024-01-15T02:17:26;96858.44;;;-2.96;100.00
18323;BME280;9287;49.456;11.064;2024-01-15T02:19:54;96874.31;;;-2.86;100.00
18323;BME280;9287;49.456;11.064;2024-01-15T02:22:24;96867.78;;;-2.79;100.00
18323;BME280;9287;49.456;11.064;2024-01-15T02:24:57;96866.09;;;-2.75;100.00
18323;BME280;9287;49.456;11.064;2024-01-15T02:27:29;96863.94;;;-2.73;100.00
18323;BME280;9287;49.456;11.064;2024-01-15T02:29:57;96870.97;;;-2.77;100.00
18323;BME280;9287;49.456;11.064;2024-01-15T02:32:26;96866.53;;;-2.68;100.00
18323;BME280;9287;49.456;11.064;2024-01-15T02:34:57;96867.03;;;-2.66;100.00
18323;BME280;9287;49.456;11.064;2024-01-15T02:37:29;96863.84;;;-2.68;100.00
18323;BME280;9287;49.456;11.064;2024-01-15T02:40:01;96869.56;;;-2.75;100.00
18323;BME280;9287;49.456;11.064;2024-01-15T02:42:31;96860.47;;;-2.74;100.00
18323;BME280;9287;49.456;11.064;2024-01-15T02:44:59;96848.47;;;-2.76;100.00
18323;BME280;9287;49.456;11.064;2024-01-15T02:47:28;96858.09;;;-2.75;100.00
18323;BME280;9287;49.456;11.064;2024-01-15T02:49:57;96854.53;;;-2.71;100.00
18323;BME280;9287;49.456;11.064;2024-01-15T02:52:30;96865.53;;;-2.72;100.00
18323;BME280;9287;49.456;11.064;2024-01-15T02:55:00;96861.84;;;-2.76;100.00
18323;BME280;9287;49.456;11.064;2024-01-15T02:57:35;96859.66;;;-2.74;100.00
18323;BME280;9287;49.456;11.064;2024-01-15T03:00:08;96852.94;;;-2.72;100.00
18323;BME280;9287;49.456;11.064;2024-01-15T03:02:37;96855.13;;;-2.74;100.00
18323;BME280;9287;49.456;11.064;2024-01-15T03:05:12;96864.94;;;-2.69;100.00
18323;BME280;9287;49.456;11.064;2024-01-15T03:07:46;96866.22;;;-2.67;100.00
18323;BME280;9287;49.456;11.064;2024-01-15T03:10:20;96862.84;;;-2.72;100.00
18323;BME280;9287;49.456;11.064;2024-01-15T03:12:49;96864.66;;;-2.68;100.00
18323;BME280;9287;49.456;11.064;2024-01-15T03:15:19;96856.34;;;-2.66;100.00
18323;BME280;9287;49.456;11.064;2024-01-15T03:17:48;96850.56;;;-2.73;100.00
18323;BME280;9287;49.456;11.064;2024-01-15T03:20:17;96861.09;;;-2.63;100.00
18323;BME280;9287;49.456;11.064;2024-01-15T03:22:52;96857.34;;;-2.62;100.00
18323;BME280;9287;49.456;11.064;2024-01-15T03:25:25;96843.97;;;-2.62;100.00
18323;BME280;9287;49.456;11.064;2024-01-15T03:27:57;96834.38;;;-2.63;100.00
18323;BME280;9287;49.456;11.064;2024-01-15T03:30:25;96842.91;;;-2.61;100.00
18323;BME280;9287;49.456;11.064;2024-01-15T03:32:58;96834.38;;;-2.63;100.00
18323;BME280;9287;49.456;11.064;2024-01-15T03:35:31;96834.38;;;-2.63;100.00
18323;BME280;9287;49.456;11.064;2024-01-15T03:38:00;96832.22;;;-2.61;100.00
18323;BME280;9287;49.456;11.064;2024-01-15T03:40:32;96822.47;;;-2.57;100.00
18323;BME280;9287;49.456;11.064;2024-01-15T03:43:01;96828.84;;;-2.53;100.00
18323;BME280;9287;49.456;11.064;2024-01-15T03:45:29;96820.91;;;-2.58;100.00
18323;BME280;9287;49.456;11.064;2024-01-15T03:47:57;96806.28;;;-2.61;100.00
18323;BME280;9287;49.456;11.064;2024-01-15T03:50:27;96813.00;;;-2.63;100.00
18323;BME280;9287;49.456;11.064;2024-01-15T03:52:58;96818.56;;;-2.60;100.00
18323;BME280;9287;49.456;11.064;2024-01-15T03:55:27;96811.22;;;-2.54;100.00
18323;BME280;9287;49.456;11.064;2024-01-15T03:57:57;96806.44;;;-2.57;100.00
18323;BME280;9287;49.456;11.064;2024-01-15T04:00:26;96812.28;;;-2.55;100.00
18323;BME280;9287;49.456;11.064;2024-01-15T04:02:54;96811.22;;;-2.54;100.00
18323;BME280;9287;49.456;11.064;2024-01-15T04:05:24;96812.22;;;-2.50;100.00
18323;BME280;9287;49.456;11.064;2024-01-15T04:07:53;96813.00;;;-2.50;100.00
18323;BME280;9287;49.456;11.064;2024-01-15T04:10:22;96797.34;;;-2.56;100.00
18323;BME280;9287;49.456;11.064;2024-01-15T04:12:51;96802.69;;;-2.56;100.00
18323;BME280;9287;49.456;11.064;2024-01-15T04:15:23;96808.53;;;-2.54;100.00
18323;BME280;9287;49.456;11.064;2024-01-15T04:17:53;96803.47;;;-2.42;100.00
18323;BME280;9287;49.456;11.064;2024-01-15T04:20:23;96805.06;;;-2.41;100.00
18323;BME280;9287;49.456;11.064;2024-01-15T04:22:53;96812.63;;;-2.43;100.00
18323;BME280;9287;49.456;11.064;2024-01-15T04:25:22;96804.47;;;-2.38;100.00
18323;BME280;9287;49.456;11.064;2024-01-15T04:27:52;96811.41;;;-2.37;100.00
18323;BME280;9287;49.456;11.064;2024-01-15T04:30:25;96818.34;;;-2.36;100.00
18323;BME280;9287;49.456;11.064;2024-01-15T04:32:55;96815.16;;;-2.38;100.00
18323;BME280;9287;49.456;11.064;2024-01-15T04:35:23;96811.31;;;-2.32;100.00
18323;BME280;9287;49.456;11.064;2024-01-15T04:37:55;96813.41;;;-2.29;100.00
18323;BME280;9287;49.456;11.064;2024-01-15T04:40:27;96811.22;;;-2.27;100.00
18323;BME280;9287;49.456;11.064;2024-01-15T04:42:56;96815.59;;;-2.31;100.00
18323;BME280;9287;49.456;11.064;2024-01-15T04:45:27;96814.19;;;-2.28;100.00
18323;BME280;9287;49.456;11.064;2024-01-15T04:47:57;96821.94;;;-2.27;100.00
18323;BME280;9287;49.456;11.064;2024-01-15T04:50:26;96818.63;;;-2.24;100.00
18323;BME280;9287;49.456;11.064;2024-01-15T04:52:59;96817.53;;;-2.23;100.00
18323;BME280;9287;49.456;11.064;2024-01-15T04:55:27;96815.38;;;-2.21;100.00
18323;BME280;9287;49.456;11.064;2024-01-15T04:57:57;96817.75;;;-2.19;100.00
18323;BME280;9287;49.456;11.064;2024-01-15T05:00:29;96808.63;;;-2.18;100.00
18323;BME280;9287;49.456;11.064;2024-01-15T05:02:58;96804.06;;;-2.18;100.00
18323;BME280;9287;49.456;11.064;2024-01-15T05:05:29;96793.38;;;-2.18;100.00
18323;BME280;9287;49.456;11.064;2024-01-15T05:08:06;96788.81;;;-2.17;100.00
18323;BME280;9287;49.456;11.064;2024-01-15T05:10:36;96777.34;;;-2.18;100.00
18323;BME280;9287;49.456;11.064;2024-01-15T05:13:05;96775.25;;;-2.21;100.00
18323;BME280;9287;49.456;11.064;2024-01-15T05:15:41;96768.31;;;-2.22;100.00
18323;BME280;9287;49.456;11.064;2024-01-15T05:18:10;96784.28;;;-2.17;100.00
18323;BME280;9287;49.456;11.064;2024-01-15T05:20:39;96796.56;;;-2.16;100.00
18323;BME280;9287;49.456;11.064;2024-01-15T05:23:10;96794.97;;;-2.17;100.00
18323;BME280;9287;49.456;11.064;2024-01-15T05:25:41;96786.84;;;-2.12;100.00
18323;BME280;9287;49.456;11.064;2024-01-15T05:28:10;96789.41;;;-2.06;100.00
18323;BME280;9287;49.456;11.064;2024-01-15T05:30:43;96795.25;;;-2.04;100.00
18323;BME280;9287;49.456;11.064;2024-01-15T05:33:12;96790.59;;;-1.99;100.00
18323;BME280;9287;49.456;11.064;2024-01-15T05:35:41;96783.06;;;-1.97;100.00
18323;BME280;9287;49.456;11.064;2024-01-15T05:38:17;96781.28;;;-2.01;100.00
18323;BME280;9287;49.456;11.064;2024-01-15T05:40:50;96780.69;;;-1.98;100.00
18323;BME280;9287;49.456;11.064;2024-01-15T05:43:23;96779.09;;;-1.99;100.00
18323;BME280;9287;49.456;11.064;2024-01-15T05:45:56;96776.91;;;-1.97;100.00
18323;BME280;9287;49.456;11.064;2024-01-15T05:48:27;96771.56;;;-1.97;100.00
18323;BME280;9287;49.456;11.064;2024-01-15T05:50:56;96783.25;;;-1.93;100.00
18323;BME280;9287;49.456;11.064;2024-01-15T05:53:28;96776.19;;;-1.89;100.00
18323;BME280;9287;49.456;11.064;2024-01-15T05:55:56;96773.31;;;-1.79;100.00
18323;BME280;9287;49.456;11.064;2024-01-15T05:58:27;96770.91;;;-1.81;100.00
18323;BME280;9287;49.456;11.064;2024-01-15T06:01:00;96783.22;;;-1.80;100.00
18323;BME280;9287;49.456;11.064;2024-01-15T06:03:34;96782.31;;;-1.75;100.00
18323;BME280;9287;49.456;11.064;2024-01-15T06:06:08;96776.47;;;-1.77;100.00
18323;BME280;9287;49.456;11.064;2024-01-15T06:09:05;96768.31;;;-1.72;100.00
18323;BME280;9287;49.456;11.064;2024-01-15T06:11:35;96771.47;;;-1.70;100.00
18323;BME280;9287;49.456;11.064;2024-01-15T06:14:12;96775.25;;;-1.71;100.00
18323;BME280;9287;49.456;11.064;2024-01-15T06:16:47;96780.00;;;-1.68;100.00
18323;BME280;9287;49.456;11.064;2024-01-15T06:19:16;96775.25;;;-1.71;100.00
18323;BME280;9287;49.456;11.064;2024-01-15T06:21:44;96786.94;;;-1.67;100.00
18323;BME280;9287;49.456;11.064;2024-01-15T06:24:12;96786.94;;;-1.67;100.00
18323;BME280;9287;49.456;11.064;2024-01-15T06:26:41;96785.34;;;-1.68;100.00
18323;BME280;9287;49.456;11.064;2024-01-15T06:29:09;96785.34;;;-1.68;100.00
18323;BME280;9287;49.456;11.064;2024-01-15T06:31:38;96787.41;;;-1.65;100.00
18323;BME280;9287;49.456;11.064;2024-01-15T06:34:08;96782.19;;;-1.70;100.00
18323;BME280;9287;49.456;11.064;2024-01-15T06:36:36;96779.63;;;-1.75;100.00
18323;BME280;9287;49.456;11.064;2024-01-15T06:39:04;96798.06;;;-1.87;100.00
18323;BME280;9287;49.456;11.064;2024-01-15T06:41:33;96788.59;;;-1.93;100.00
18323;BME280;9287;49.456;11.064;2024-01-15T06:44:01;96789.00;;;-2.00;100.00
18323;BME280;9287;49.456;11.064;2024-01-15T06:46:34;96786.72;;;-2.06;100.00
18323;BME280;9287;49.456;11.064;2024-01-15T06:49:03;96772.16;;;-2.00;100.00
18323;BME280;9287;49.456;11.064;2024-01-15T06:51:33;96779.19;;;-2.04;100.00
18323;BME280;9287;49.456;11.064;2024-01-15T06:54:01;96772.75;;;-2.03;100.00
18323;BME280;9287;49.456;11.064;2024-01-15T06:56:29;96784.44;;;-1.99;100.00
18323;BME280;9287;49.456;11.064;2024-01-15T06:58:57;96771.16;;;-1.91;100.00
18323;BME280;9287;49.456;11.064;2024-01-15T07:01:25;96774.72;;;-1.95;100.00
18323;BME280;9287;49.456;11.064;2024-01-15T07:03:54;96778.84;;;-1.89;100.00
18323;BME280;9287;49.456;11.064;2024-01-15T07:06:22;96774.50;;;-1.85;100.00
18323;BME280;9287;49.456;11.064;2024-01-15T07:08:51;96775.06;;;-1.74;100.00
18323;BME280;9287;49.456;11.064;2024-01-15T07:11:19;96765.75;;;-1.77;100.00
18323;BME280;9287;49.456;11.064;2024-01-15T07:13:47;96775.88;;;-1.74;100.00
18323;BME280;9287;49.456;11.064;2024-01-15T07:16:15;96776.03;;;-1.70;100.00
18323;BME280;9287;49.456;11.064;2024-01-15T07:19:02;96784.56;;;-1.68;100.00
18323;BME280;9287;49.456;11.064;2024-01-15T07:21:30;96785.00;;;-1.75;100.00
18323;BME280;9287;49.456;11.064;2024-01-15T07:24:00;96787.78;;;-1.80;100.00
18323;BME280;9287;49.456;11.064;2024-01-15T07:26:29;96790.16;;;-1.79;100.00
18323;BME280;9287;49.456;11.064;2024-01-15T07:28:57;96788.97;;;-1.86;100.00
18323;BME280;9287;49.456;11.064;2024-01-15T07:31:25;96795.41;;;-1.87;100.00
18323;BME280;9287;49.456;11.064;2024-01-15T07:33:53;96796.88;;;-1.81;100.00
18323;BME280;9287;49.456;11.064;2024-01-15T07:36:22;96813.53;;;-1.84;100.00
18323;BME280;9287;49.456;11.064;2024-01-15T07:38:53;96800.06;;;-1.79;100.00
18323;BME280;9287;49.456;11.064;2024-01-15T07:41:22;96804.81;;;-1.76;100.00
18323;BME280;9287;49.456;11.064;2024-01-15T07:43:50;96805.59;;;-1.76;100.00
18323;BME280;9287;49.456;11.064;2024-01-15T07:46:18;96801.03;;;-1.75;100.00
18323;BME280;9287;49.456;11.064;2024-01-15T07:48:46;96810.53;;;-1.69;100.00
18323;BME280;9287;49.456;11.064;2024-01-15T07:51:14;96810.16;;;-1.76;100.00
18323;BME280;9287;49.456;11.064;2024-01-15T07:53:42;96796.47;;;-1.74;100.00
18323;BME280;9287;49.456;11.064;2024-01-15T07:56:10;96807.97;;;-1.74;100.00
18323;BME280;9287;49.456;11.064;2024-01-15T07:58:39;96808.94;;;-1.70;100.00
18323;BME280;9287;49.456;11.064;2024-01-15T08:01:07;96800.91;;;-1.70;100.00
18323;BME280;9287;49.456;11.064;2024-01-15T08:03:35;96804.56;;;-1.66;100.00
18323;BME280;9287;49.456;11.064;2024-01-15T08:06:04;96808.34;;;-1.67;100.00
18323;BME280;9287;49.456;11.064;2024-01-15T08:08:32;96807.16;;;-1.61;100.00
18323;BME280;9287;49.456;11.064;2024-01-15T08:11:00;96797.53;;;-1.62;100.00
18323;BME280;9287;49.456;11.064;2024-01-15T08:13:28;96796.94;;;-1.59;100.00
18323;BME280;9287;49.456;11.064;2024-01-15T08:15:58;96792.66;;;-1.60;100.00
18323;BME280;9287;49.456;11.064;2024-01-15T08:18:29;96792.66;;;-1.60;100.00
18323;BME280;9287;49.456;11.064;2024-01-15T08:20:57;96798.97;;;-1.56;100.00
18323;BME280;9287;49.456;11.064;2024-01-15T08:23:25;96793.03;;;-1.53;100.00
18323;BME280;9287;49.456;11.064;2024-01-15T08:25:54;96788.66;;;-1.49;100.00
18323;BME280;9287;49.456;11.064;2024-01-15T08:28:22;96802.53;;;-1.47;100.00
18323;BME280;9287;49.456;11.064;2024-01-15T08:30:50;96790.63;;;-1.41;100.00
18323;BME280;9287;49.456;11.064;2024-01-15T08:33:19;96788.41;;;-1.38;100.00
18323;BME280;9287;49.456;11.064;2024-01-15T08:35:48;96784.53;;;-1.32;100.00
18323;BME280;9287;49.456;11.064;2024-01-15T08:38:16;96791.47;;;-1.31;100.00
18323;BME280;9287;49.456;11.064;2024-01-15T08:40:44;96789.28;;;-1.29;100.00
18323;BME280;9287;49.456;11.064;2024-01-15T08:43:12;96782.81;;;-1.28;100.00
18323;BME280;9287;49.456;11.064;2024-01-15T08:45:40;96788.56;;;-1.21;100.00
18323;BME280;9287;49.456;11.064;2024-01-15T08:48:08;96779.22;;;-1.24;100.00
18323;BME280;9287;49.456;11.064;2024-01-15T08:50:37;96788.56;;;-1.21;100.00
18323;BME280;9287;49.456;11.064;2024-01-15T08:53:05;96789.19;;;-1.16;100.00
18323;BME280;9287;49.456;11.064;2024-01-15T08:55:33;96787.50;;;-1.12;100.00
18323;BME280;9287;49.456;11.064;2024-01-15T08:58:01;96786.72;;;-1.12;100.00
18323;BME280;9287;49.456;11.064;2024-01-15T09:00:29;96793.28;;;-1.18;100.00
18323;BME280;9287;49.456;11.064;2024-01-15T09:02:58;96789.88;;;-1.10;100.00
18323;BME280;9287;49.456;11.064;2024-01-15T09:05:25;96793.84;;;-1.08;100.00
18323;BME280;9287;49.456;11.064;2024-01-15T09:07:55;96788.78;;;-1.09;100.00
18323;BME280;9287;49.456;11.064;2024-01-15T09:10:23;96789.28;;;-1.07;100.00
18323;BME280;9287;49.456;11.064;2024-01-15T09:12:51;96790.06;;;-1.07;100.00
18323;BME280;9287;49.456;11.064;2024-01-15T09:15:19;96791.47;;;-1.09;100.00
18323;BME280;9287;49.456;11.064;2024-01-15T09:17:48;96795.94;;;-1.18;100.00
18323;BME280;9287;49.456;11.064;2024-01-15T09:20:16;96792.78;;;-1.20;100.00
18323;BME280;9287;49.456;11.064;2024-01-15T09:22:44;96788.28;;;-1.11;100.00
18323;BME280;9287;49.456;11.064;2024-01-15T09:25:14;96796.22;;;-1.06;100.00
18323;BME280;9287;49.456;11.064;2024-01-15T09:27:42;96789.88;;;-1.10;100.00
18323;BME280;9287;49.456;11.064;2024-01-15T09:30:11;96799.00;;;-1.11;100.00
18323;BME280;9287;49.456;11.064;2024-01-15T09:32:39;96788.66;;;-1.04;100.00
18323;BME280;9287;49.456;11.064;2024-01-15T09:35:07;96794.63;;;-1.07;100.00
18323;BME280;9287;49.456;11.064;2024-01-15T09:37:35;96793.69;;;-1.02;100.00
18323;BME280;9287;49.456;11.064;2024-01-15T09:40:15;96800.50;;;-0.96;100.00
18323;BME280;9287;49.456;11.064;2024-01-15T09:42:44;96792.34;;;-0.91;100.00
18323;BME280;9287;49.456;11.064;2024-01-15T09:45:13;96792.53;;;-0.88;100.00
18323;BME280;9287;49.456;11.064;2024-01-15T09:47:41;96796.03;;;-0.79;100.00
18323;BME280;9287;49.456;11.064;2024-01-15T09:50:12;96791.81;;;-0.71;100.00
18323;BME280;9287;49.456;11.064;2024-01-15T09:52:43;96802.28;;;-0.61;100.00
18323;BME280;9287;49.456;11.064;2024-01-15T09:55:11;96786.00;;;-0.64;100.00
18323;BME280;9287;49.456;11.064;2024-01-15T09:57:42;96794.81;;;-0.73;100.00
18323;BME280;9287;49.456;11.064;2024-01-15T10:00:12;96797.34;;;-0.67;100.00
18323;BME280;9287;49.456;11.064;2024-01-15T10:02:40;96798.31;;;-0.63;100.00
18323;BME280;9287;49.456;11.064;2024-01-15T10:05:08;96793.56;;;-0.66;100.00
18323;BME280;9287;49.456;11.064;2024-01-15T10:07:37;96791.13;;;-0.54;100.00
18323;BME280;9287;49.456;11.064;2024-01-15T10:10:07;96782.41;;;-0.60;100.00
18323;BME280;9287;49.456;11.064;2024-01-15T10:12:36;96791.25;;;-0.59;100.00
18323;BME280;9287;49.456;11.064;2024-01-15T10:15:09;96784.16;;;-0.55;100.00
18323;BME280;9287;49.456;11.064;2024-01-15T10:17:37;96780.03;;;-0.61;100.00
18323;BME280;9287;49.456;11.064;2024-01-15T10:20:08;96783.69;;;-0.57;100.00
18323;BME280;9287;49.456;11.064;2024-01-15T10:22:40;96777.84;;;-0.59;100.00
18323;BME280;9287;49.456;11.064;2024-01-15T10:25:10;96776.88;;;-0.63;100.00
18323;BME280;9287;49.456;11.064;2024-01-15T10:27:38;96775.56;;;-0.75;100.00
18323;BME280;9287;49.456;11.064;2024-01-15T10:30:09;96766.44;;;-0.74;100.00
18323;BME280;9287;49.456;11.064;2024-01-15T10:32:37;96764.88;;;-0.66;100.00
18323;BME280;9287;49.456;11.064;2024-01-15T10:35:07;96757.50;;;-0.60;100.00
18323;BME280;9287;49.456;11.064;2024-01-15T10:37:35;96744.88;;;-0.60;100.00
18323;BME280;9287;49.456;11.064;2024-01-15T10:40:04;96746.63;;;-0.55;100.00
18323;BME280;9287;49.456;11.064;2024-01-15T10:42:32;96750.84;;;-0.63;100.00
18323;BME280;9287;49.456;11.064;2024-01-15T10:45:01;96740.44;;;-0.64;100.00
18323;BME280;9287;49.456;11.064;2024-01-15T10:47:30;96737.75;;;-0.64;100.00
18323;BME280;9287;49.456;11.064;2024-01-15T10:49:58;96743.13;;;-0.64;100.00
18323;BME280;9287;49.456;11.064;2024-01-15T10:52:27;96733.97;;;-0.63;100.00
18323;BME280;9287;49.456;11.064;2024-01-15T10:54:56;96729.22;;;-0.66;100.00
18323;BME280;9287;49.456;11.064;2024-01-15T10:57:27;96739.63;;;-0.74;100.00
18323;BME280;9287;49.456;11.064;2024-01-15T10:59:56;96729.38;;;-0.72;100.00
18323;BME280;9287;49.456;11.064;2024-01-15T11:02:25;96727.38;;;-0.57;100.00
18323;BME280;9287;49.456;11.064;2024-01-15T11:04:55;96718.56;;;-0.49;100.00
18323;BME280;9287;49.456;11.064;2024-01-15T11:07:23;96718.25;;;-0.56;100.00
18323;BME280;9287;49.456;11.064;2024-01-15T11:09:56;96716.19;;;-0.51;100.00
18323;BME280;9287;49.456;11.064;2024-01-15T11:12:25;96717.94;;;-0.46;100.00
18323;BME280;9287;49.456;11.064;2024-01-15T11:15:01;96718.91;;;-0.42;100.00
18323;BME280;9287;49.456;11.064;2024-01-15T11:20:34;96720.13;;;-0.48;100.00
18323;BME280;9287;49.456;11.064;2024-01-15T11:23:03;96722.81;;;-0.48;100.00
18323;BME280;9287;49.456;11.064;2024-01-15T11:25:35;96722.34;;;-0.50;100.00
18323;BME280;9287;49.456;11.064;2024-01-15T11:28:05;96724.03;;;-0.63;100.00
18323;BME280;9287;49.456;11.064;2024-01-15T11:30:33;96711.28;;;-0.57;100.00
18323;BME280;9287;49.456;11.064;2024-01-15T11:33:03;96718.25;;;-0.56;100.00
18323;BME280;9287;49.456;11.064;2024-01-15T11:35:51;96711.75;;;-0.64;100.00
18323;BME280;9287;49.456;11.064;2024-01-15T11:38:28;96702.16;;;-0.56;100.00
18323;BME280;9287;49.456;11.064;2024-01-15T11:40:58;96703.38;;;-0.62;100.00
18323;BME280;9287;49.456;11.064;2024-01-15T11:43:26;96701.19;;;-0.60;100.00
18323;BME280;9287;49.456;11.064;2024-01-15T11:45:54;96707.69;;;-0.53;100.00
18323;BME280;9287;49.456;11.064;2024-01-15T11:48:34;96705.63;;;-0.47;100.00
18323;BME280;9287;49.456;11.064;2024-01-15T11:51:11;96714.94;;;-0.45;100.00
18323;BME280;9287;49.456;11.064;2024-01-15T11:53:43;96703.44;;;-0.45;100.00
18323;BME280;9287;49.456;11.064;2024-01-15T11:56:15;96704.06;;;-0.48;100.00
18323;BME280;9287;49.456;11.064;2024-01-15T11:58:44;96699.03;;;-0.41;100.00
18323;BME280;9287;49.456;11.064;2024-01-15T12:01:12;96707.22;;;-0.46;100.00
18323;BME280;9287;49.456;11.064;2024-01-15T12:03:40;96701.53;;;-0.53;100.00
18323;BME280;9287;49.456;11.064;2024-01-15T12:06:11;96681.66;;;-0.52;100.00
18323;BME280;9287;49.456;11.064;2024-01-15T12:08:40;96691.44;;;-0.56;100.00
18323;BME280;9287;49.456;11.064;2024-01-15T12:11:11;96693.94;;;-0.51;100.00
18323;BME280;9287;49.456;11.064;2024-01-15T12:13:42;96705.47;;;-0.51;100.00
18323;BME280;9287;49.456;11.064;2024-01-15T12:16:10;96705.47;;;-0.51;100.00
18323;BME280;9287;49.456;11.064;2024-01-15T12:18:41;96710.19;;;-0.56;100.00
18323;BME280;9287;49.456;11.064;2024-01-15T12:21:10;96697.09;;;-0.58;100.00
18323;BME280;9287;49.456;11.064;2024-01-15T12:23:39;96699.97;;;-0.54;100.00
18323;BME280;9287;49.456;11.064;2024-01-15T12:26:07;96688.44;;;-0.46;100.00
18323;BME280;9287;49.456;11.064;2024-01-15T12:28:36;96692.72;;;-0.45;100.00
18323;BME280;9287;49.456;11.064;2024-01-15T12:31:06;96692.72;;;-0.45;100.00
18323;BME280;9287;49.456;11.064;2024-01-15T12:33:34;96698.84;;;-0.45;100.00
18323;BME280;9287;49.456;11.064;2024-01-15T12:36:02;96694.47;;;-0.41;100.00
18323;BME280;9287;49.456;11.064;2024-01-15T12:38:33;96697.44;;;-0.42;100.00
18323;BME280;9287;49.456;11.064;2024-01-15T12:41:01;96700.44;;;-0.44;100.00
18323;BME280;9287;49.456;11.064;2024-01-15T12:43:28;96694.47;;;-0.41;100.00
18323;BME280;9287;49.456;11.064;2024-01-15T12:45:56;96692.09;;;-0.42;100.00
18323;BME280;9287;49.456;11.064;2024-01-15T12:48:25;96688.31;;;-0.41;100.00
18323;BME280;9287;49.456;11.064;2024-01-15T12:50:53;96690.84;;;-0.36;100.00
18323;BME280;9287;49.456;11.064;2024-01-15T12:53:22;96685.78;;;-0.29;100.00
18323;BME280;9287;49.456;11.064;2024-01-15T12:55:51;96683.59;;;-0.27;100.00
18323;BME280;9287;49.456;11.064;2024-01-15T12:58:19;96676.81;;;-0.24;100.00
18323;BME280;9287;49.456;11.064;2024-01-15T13:00:47;96679.19;;;-0.23;100.00
18323;BME280;9287;49.456;11.064;2024-01-15T13:03:16;96677.75;;;-0.29;100.00
18323;BME280;9287;49.456;11.064;2024-01-15T13:05:44;96683.13;;;-0.38;100.00
18323;BME280;9287;49.456;11.064;2024-01-15T13:08:13;96682.63;;;-0.31;100.00